Djerba Mellita, Tunisia
Current Conditions -  °F | °C
As of 9:00 AM on Friday 31 Oct 2014 (Local Time) from DTTJ Reporting Station
Few Clouds Few Clouds  
Wind Chill: 72°   Ceiling: Unl
Heat Index: 72°   Visibility: 5mi
Dew Point: 55°   Wind: 15mph
Humidity: 57%   Direction: 10°N
Pressure: 30.15"   Gusts: NA
Location:  33.87°N, 10.77°E
Report Text: DTTJ 310800Z 01013KT 8000 FEW020 22/13 Q1021 NOSIG
Loading
Personal Weather Stations






























Interactive Weather Map
Tropical Storm Tracking
New forecast layout! Learn more

10-Day Weather Forecast

Advertisements
Track Severe Weather on mobile